createdAt,value
2018-12-05T00:00:16.024Z,12.90
2018-12-05T00:01:16.003Z,9.80
2018-12-05T00:02:15.995Z,14.10
2018-12-05T00:03:15.994Z,15.50
2018-12-05T00:04:15.989Z,11.10
2018-12-05T00:05:15.986Z,11.30
2018-12-05T00:06:15.949Z,13.10
2018-12-05T00:07:15.954Z,12.70
2018-12-05T00:08:15.934Z,10.70
2018-12-05T00:09:15.940Z,12.90
2018-12-05T00:10:15.917Z,10.70
2018-12-05T00:11:15.901Z,14.70
2018-12-05T00:12:15.889Z,13.60
2018-12-05T00:13:15.880Z,14.50
2018-12-05T00:14:15.887Z,11.70
2018-12-05T00:15:15.865Z,12.10
2018-12-05T00:16:15.842Z,10.40
2018-12-05T00:17:15.841Z,11.30
2018-12-05T00:18:15.831Z,15.00
2018-12-05T00:19:15.830Z,11.90
2018-12-05T00:20:15.813Z,9.00
2018-12-05T00:21:15.791Z,11.90
2018-12-05T00:22:15.774Z,12.30
2018-12-05T00:23:15.766Z,14.90
2018-12-05T00:24:15.776Z,12.90
2018-12-05T00:25:15.751Z,11.60
2018-12-05T00:26:15.765Z,10.80
2018-12-05T00:27:15.730Z,9.70
2018-12-05T00:28:15.723Z,13.60
2018-12-05T00:29:15.723Z,12.00
2018-12-05T00:30:15.696Z,17.00
2018-12-05T00:31:15.681Z,14.50
2018-12-05T00:32:15.675Z,13.70
2018-12-05T00:33:15.670Z,13.50
2018-12-05T00:34:15.670Z,13.40
2018-12-05T00:35:15.652Z,13.30
2018-12-05T00:36:15.627Z,11.50
2018-12-05T00:37:15.618Z,11.10
2018-12-05T00:38:15.606Z,11.50
2018-12-05T00:39:15.614Z,12.20
2018-12-05T00:40:15.638Z,10.10
2018-12-05T00:41:15.578Z,10.30
2018-12-05T00:42:15.570Z,12.20
2018-12-05T00:43:15.595Z,14.40
2018-12-05T00:44:15.558Z,14.80
2018-12-05T00:45:15.532Z,17.70
2018-12-05T00:46:15.521Z,11.90
2018-12-05T00:47:15.506Z,13.50
2018-12-05T00:48:15.500Z,14.40
2018-12-05T00:49:15.502Z,14.80
2018-12-05T00:50:15.482Z,12.50
2018-12-05T00:51:15.461Z,17.70
2018-12-05T00:52:15.451Z,17.10
2018-12-05T00:53:15.444Z,14.30
2018-12-05T00:54:15.447Z,15.20
2018-12-05T00:55:15.425Z,12.50
2018-12-05T00:56:15.415Z,15.20
2018-12-05T00:57:15.397Z,12.20
2018-12-05T00:58:15.417Z,14.90
2018-12-05T00:59:15.399Z,10.10
2018-12-05T01:00:15.359Z,14.00
2018-12-05T01:01:15.346Z,12.80
2018-12-05T01:02:15.349Z,13.80
2018-12-05T01:03:15.333Z,12.40
2018-12-05T01:04:15.325Z,11.30
2018-12-05T01:05:15.330Z,13.90
2018-12-05T01:06:15.302Z,12.80
2018-12-05T01:07:15.297Z,10.80
2018-12-05T01:08:15.271Z,14.70
2018-12-05T01:09:15.261Z,11.20
2018-12-05T01:10:15.332Z,10.90
2018-12-05T01:11:15.251Z,14.80
2018-12-05T01:12:15.233Z,12.10
2018-12-05T01:13:15.222Z,13.60
2018-12-05T01:14:15.213Z,11.10
2018-12-05T01:15:15.223Z,12.40
2018-12-05T01:16:15.193Z,11.30
2018-12-05T01:17:15.172Z,13.00
2018-12-05T01:18:15.186Z,13.30
2018-12-05T01:19:15.160Z,10.10
2018-12-05T01:20:15.160Z,11.90
2018-12-05T01:21:15.137Z,13.00
2018-12-05T01:22:15.139Z,13.30
2018-12-05T01:23:15.114Z,13.80
2018-12-05T01:24:15.120Z,14.50
2018-12-05T01:25:15.100Z,11.50
2018-12-05T01:26:15.074Z,14.10
2018-12-05T01:27:15.073Z,11.50
2018-12-05T01:28:15.072Z,13.90
2018-12-05T01:29:15.052Z,15.00
2018-12-05T01:30:15.068Z,14.50
2018-12-05T01:31:15.028Z,9.30
2018-12-05T01:32:15.015Z,14.00
2018-12-05T01:33:16.360Z,12.90
2018-12-05T01:34:14.993Z,13.20
2018-12-05T01:35:14.998Z,15.60
2018-12-05T01:36:14.973Z,12.10
2018-12-05T01:37:14.970Z,11.40
2018-12-05T01:38:14.948Z,9.90
2018-12-05T01:39:14.944Z,13.00
2018-12-05T01:40:15.006Z,15.20
2018-12-05T01:41:14.915Z,11.40
2018-12-05T01:42:14.902Z,13.80
2018-12-05T01:43:14.894Z,14.70
2018-12-05T01:44:14.884Z,14.00
2018-12-05T01:45:14.870Z,13.00
2018-12-05T01:46:14.881Z,15.30
2018-12-05T01:47:14.854Z,9.30
2018-12-05T01:48:14.836Z,15.30
2018-12-05T01:49:14.830Z,11.40
2018-12-05T01:50:14.821Z,13.20
2018-12-05T01:51:14.871Z,11.30
2018-12-05T01:52:14.796Z,13.10
2018-12-05T01:53:14.780Z,10.70
2018-12-05T01:54:14.792Z,12.60
2018-12-05T01:55:14.764Z,13.90
2018-12-05T01:56:14.754Z,14.00
2018-12-05T01:57:14.738Z,10.60
2018-12-05T01:58:14.728Z,15.30
2018-12-05T01:59:14.717Z,12.60
2018-12-05T02:00:14.701Z,11.90
2018-12-05T02:01:14.714Z,14.20
2018-12-05T02:02:15.646Z,11.60
2018-12-05T02:03:14.677Z,10.90
2018-12-05T02:04:14.664Z,12.30
2018-12-05T02:05:14.690Z,12.40
2018-12-05T02:06:15.218Z,10.70
2018-12-05T02:07:14.634Z,8.30
2018-12-05T02:08:14.624Z,12.30
2018-12-05T02:09:14.619Z,14.70
2018-12-05T02:10:14.606Z,13.60
2018-12-05T02:11:14.605Z,12.10
2018-12-05T02:12:14.575Z,13.40
2018-12-05T02:13:14.569Z,11.00
2018-12-05T02:14:14.564Z,13.00
2018-12-05T02:15:14.538Z,15.00
2018-12-05T02:16:14.564Z,10.00
2018-12-05T02:17:14.520Z,11.70
2018-12-05T02:18:14.513Z,13.00
2018-12-05T02:19:14.509Z,12.10
2018-12-05T02:20:14.490Z,12.10
2018-12-05T02:21:14.502Z,13.00
2018-12-05T02:22:14.462Z,11.80
2018-12-05T02:23:14.454Z,13.60
2018-12-05T02:24:14.440Z,10.60
2018-12-05T02:25:14.437Z,9.90
2018-12-05T02:26:14.429Z,15.10
2018-12-05T02:27:14.436Z,13.70
2018-12-05T02:28:14.398Z,13.10
2018-12-05T02:29:14.394Z,11.70
2018-12-05T02:30:14.402Z,12.70
2018-12-05T02:31:14.375Z,12.60
2018-12-05T02:32:14.379Z,12.70
2018-12-05T02:33:14.357Z,14.70
2018-12-05T02:34:14.375Z,15.60
2018-12-05T02:35:14.332Z,15.40
2018-12-05T02:36:14.314Z,10.80
2018-12-05T02:37:14.323Z,12.80
2018-12-05T02:38:14.301Z,12.50
2018-12-05T02:39:14.287Z,15.00
2018-12-05T02:40:14.270Z,11.70
2018-12-05T02:41:14.261Z,16.40
2018-12-05T02:42:14.266Z,11.60
2018-12-05T02:43:14.243Z,17.90
2018-12-05T02:44:14.223Z,10.00
2018-12-05T02:45:14.212Z,10.70
2018-12-05T02:46:14.205Z,14.80
2018-12-05T02:47:14.211Z,11.80
2018-12-05T02:48:14.187Z,11.10
2018-12-05T02:49:14.186Z,14.50
2018-12-05T02:50:14.170Z,18.00
2018-12-05T02:51:14.152Z,12.60
2018-12-05T02:52:14.160Z,15.30
2018-12-05T02:53:14.132Z,10.60
2018-12-05T02:54:14.117Z,15.10
2018-12-05T02:55:14.103Z,10.50
2018-12-05T02:56:14.102Z,13.90
2018-12-05T02:57:14.113Z,10.70
2018-12-05T02:58:14.069Z,13.10
2018-12-05T02:59:14.060Z,14.10
2018-12-05T03:00:14.066Z,12.20
2018-12-05T03:01:14.039Z,15.70
2018-12-05T03:02:14.046Z,9.80
2018-12-05T03:03:14.024Z,13.50
2018-12-05T03:04:14.016Z,16.90
2018-12-05T03:05:14.003Z,11.60
2018-12-05T03:06:13.986Z,14.10
2018-12-05T03:07:14.026Z,13.40
2018-12-05T03:08:13.978Z,10.90
2018-12-05T03:09:13.960Z,12.20
2018-12-05T03:10:13.942Z,13.50
2018-12-05T03:11:13.937Z,18.60
2018-12-05T03:12:13.931Z,11.00
2018-12-05T03:13:13.927Z,9.90
2018-12-05T03:14:13.895Z,12.10
2018-12-05T03:15:13.892Z,12.00
2018-12-05T03:16:13.878Z,12.80
2018-12-05T03:17:13.866Z,15.00
2018-12-05T03:18:14.226Z,13.20
2018-12-05T03:19:13.851Z,14.90
2018-12-05T03:20:13.841Z,14.20
2018-12-05T03:21:13.817Z,17.10
2018-12-05T03:22:13.808Z,17.00
2018-12-05T03:23:13.822Z,16.00
2018-12-05T03:24:13.795Z,15.50
2018-12-05T03:25:13.793Z,13.00
2018-12-05T03:26:13.767Z,16.10
2018-12-05T03:27:13.756Z,10.40
2018-12-05T03:28:13.763Z,13.90
2018-12-05T03:29:13.730Z,12.30
2018-12-05T03:30:13.732Z,16.50
2018-12-05T03:31:13.725Z,17.90
2018-12-05T03:32:13.700Z,13.40
2018-12-05T03:33:13.705Z,13.80
2018-12-05T03:34:13.691Z,15.60
2018-12-05T03:35:13.675Z,15.70
2018-12-05T03:36:13.656Z,14.50
2018-12-05T03:37:13.665Z,11.50
2018-12-05T03:38:14.173Z,15.60
2018-12-05T03:39:13.633Z,10.40
2018-12-05T03:40:13.615Z,12.60
2018-12-05T03:41:13.609Z,9.60
2018-12-05T03:42:13.583Z,13.10
2018-12-05T03:43:13.601Z,13.50
2018-12-05T03:44:13.582Z,16.10
2018-12-05T03:45:13.577Z,15.20
2018-12-05T03:46:13.552Z,13.40
2018-12-05T03:47:13.550Z,14.00
2018-12-05T03:48:13.565Z,12.60
2018-12-05T03:49:13.546Z,14.10
2018-12-05T03:50:13.515Z,12.00
2018-12-05T03:51:13.496Z,9.80
2018-12-05T03:52:13.483Z,14.40
2018-12-05T03:53:13.557Z,13.70
2018-12-05T03:54:13.466Z,15.30
2018-12-05T03:55:13.453Z,10.00
2018-12-05T03:56:13.447Z,14.00
2018-12-05T03:57:13.424Z,14.40
2018-12-05T03:58:13.419Z,14.50
2018-12-05T03:59:13.439Z,10.90
2018-12-05T04:00:13.400Z,13.30
2018-12-05T04:01:13.389Z,15.70
2018-12-05T04:02:13.383Z,17.40
2018-12-05T04:03:13.403Z,14.20
2018-12-05T04:04:13.376Z,12.40
2018-12-05T04:05:13.353Z,12.70
2018-12-05T04:06:13.390Z,13.40
2018-12-05T04:07:13.355Z,17.50
2018-12-05T04:08:13.312Z,11.40
2018-12-05T04:09:13.332Z,16.40
2018-12-05T04:10:13.287Z,13.10
2018-12-05T04:11:13.309Z,13.60
2018-12-05T04:12:13.278Z,14.60
2018-12-05T04:13:13.258Z,13.00
2018-12-05T04:14:13.276Z,11.70
2018-12-05T04:15:13.235Z,13.40
2018-12-05T04:16:13.222Z,11.90
2018-12-05T04:17:13.204Z,10.50
2018-12-05T04:18:13.217Z,11.50
2018-12-05T04:19:13.213Z,12.80
2018-12-05T04:20:13.181Z,11.90
2018-12-05T04:21:13.163Z,12.40
2018-12-05T04:22:13.155Z,14.90
2018-12-05T04:23:13.162Z,13.70
2018-12-05T04:24:13.150Z,11.70
2018-12-05T04:25:13.129Z,13.30
2018-12-05T04:26:13.126Z,12.40
2018-12-05T04:27:13.106Z,13.00
2018-12-05T04:28:13.092Z,13.90
2018-12-05T04:29:13.116Z,12.70
2018-12-05T04:30:13.077Z,17.20
2018-12-05T04:31:13.061Z,15.30
2018-12-05T04:32:13.049Z,13.00
2018-12-05T04:33:13.046Z,15.50
2018-12-05T04:34:13.024Z,13.50
2018-12-05T04:35:13.039Z,15.40
2018-12-05T04:36:13.011Z,16.90
2018-12-05T04:37:13.000Z,12.60
2018-12-05T04:38:12.978Z,10.60
2018-12-05T04:39:12.980Z,12.80
2018-12-05T04:40:12.983Z,14.00
2018-12-05T04:41:12.944Z,15.60
2018-12-05T04:42:12.948Z,12.70
2018-12-05T04:43:12.923Z,14.00
2018-12-05T04:44:12.914Z,15.80
2018-12-05T04:45:12.915Z,12.80
2018-12-05T04:46:12.892Z,13.00
2018-12-05T04:47:12.884Z,13.80
2018-12-05T04:48:12.961Z,16.60
2018-12-05T04:49:12.916Z,12.30
2018-12-05T04:50:12.866Z,18.30
2018-12-05T04:51:12.852Z,15.30
2018-12-05T04:52:12.834Z,13.90
2018-12-05T04:53:12.864Z,16.50
2018-12-05T04:54:12.802Z,14.10
2018-12-05T04:55:12.807Z,13.10
2018-12-05T04:56:12.810Z,13.50
2018-12-05T04:57:12.778Z,16.10
2018-12-05T04:58:12.762Z,16.00
2018-12-05T04:59:12.747Z,14.60
2018-12-05T05:00:12.772Z,19.10
2018-12-05T05:01:12.727Z,15.00
2018-12-05T05:02:12.720Z,13.20
2018-12-05T05:03:12.713Z,15.00
2018-12-05T05:04:12.749Z,13.90
2018-12-05T05:05:12.696Z,15.50
2018-12-05T05:06:12.681Z,16.00
2018-12-05T05:07:12.672Z,16.40
2018-12-05T05:08:12.651Z,12.60
2018-12-05T05:09:12.645Z,18.60
2018-12-05T05:10:12.667Z,14.30
2018-12-05T05:11:12.616Z,16.20
2018-12-05T05:12:12.612Z,15.20
2018-12-05T05:13:12.713Z,15.40
2018-12-05T05:14:12.598Z,18.10
2018-12-05T05:15:12.579Z,16.30
2018-12-05T05:16:12.567Z,17.30
2018-12-05T05:17:12.703Z,16.70
2018-12-05T05:18:12.545Z,16.40
2018-12-05T05:19:12.549Z,18.60
2018-12-05T05:20:12.519Z,15.20
2018-12-05T05:21:12.526Z,20.10
2018-12-05T05:22:12.494Z,13.20
2018-12-05T05:23:12.508Z,15.60
2018-12-05T05:24:12.477Z,20.50
2018-12-05T05:25:12.459Z,15.60
2018-12-05T05:26:12.566Z,19.00
2018-12-05T05:27:12.443Z,21.20
2018-12-05T05:28:12.433Z,18.90
2018-12-05T05:29:12.439Z,23.70
2018-12-05T05:30:12.411Z,26.90
2018-12-05T05:31:12.420Z,17.20
2018-12-05T05:32:12.399Z,26.00
2018-12-05T05:33:12.374Z,21.90
2018-12-05T05:34:12.361Z,19.90
2018-12-05T05:35:12.375Z,24.40
2018-12-05T05:36:12.364Z,26.30
2018-12-05T05:37:12.333Z,30.10
2018-12-05T05:38:12.330Z,31.70
2018-12-05T05:39:12.318Z,28.50
2018-12-05T05:40:12.302Z,27.00
2018-12-05T05:41:12.306Z,23.90
2018-12-05T05:42:12.283Z,24.90
2018-12-05T05:43:12.354Z,22.20
2018-12-05T05:44:12.267Z,22.90
2018-12-05T05:45:12.257Z,22.60
2018-12-05T05:46:12.277Z,22.50
2018-12-05T05:47:12.233Z,22.80
2018-12-05T05:48:12.223Z,19.90
2018-12-05T05:49:12.203Z,17.20
2018-12-05T05:50:12.187Z,19.60
2018-12-05T05:51:12.228Z,21.40
2018-12-05T05:52:12.173Z,22.90
2018-12-05T05:53:12.170Z,22.10
2018-12-05T05:54:12.158Z,21.50
2018-12-05T05:55:12.148Z,23.10
2018-12-05T05:56:12.127Z,21.70
2018-12-05T05:57:12.136Z,22.10
2018-12-05T05:58:12.145Z,20.70
2018-12-05T05:59:12.094Z,24.50
2018-12-05T06:00:12.097Z,21.20
2018-12-05T06:01:12.071Z,19.30
2018-12-05T06:02:12.077Z,17.70
2018-12-05T06:03:12.051Z,20.40
2018-12-05T06:04:12.055Z,17.50
2018-12-05T06:05:12.045Z,20.20
2018-12-05T06:06:12.021Z,16.50
2018-12-05T06:07:12.027Z,23.30
2018-12-05T06:08:12.017Z,21.10
2018-12-05T06:09:12.007Z,19.10
2018-12-05T06:10:11.984Z,14.90
2018-12-05T06:11:12.039Z,16.60
2018-12-05T06:12:11.977Z,18.10
2018-12-05T06:13:11.951Z,21.60
2018-12-05T06:14:11.934Z,24.40
2018-12-05T06:15:11.923Z,20.30
2018-12-05T06:16:11.909Z,17.70
2018-12-05T06:17:11.915Z,22.00
2018-12-05T06:18:11.898Z,17.90
2018-12-05T06:19:11.878Z,21.50
2018-12-05T06:20:11.872Z,22.10
2018-12-05T06:21:11.864Z,16.70
2018-12-05T06:22:11.853Z,24.90
2018-12-05T06:23:11.836Z,19.00
2018-12-05T06:24:11.820Z,20.00
2018-12-05T06:25:12.072Z,19.70
2018-12-05T06:26:11.802Z,18.70
2018-12-05T06:27:11.803Z,18.90
2018-12-05T06:28:11.777Z,20.50
2018-12-05T06:29:11.774Z,21.30
2018-12-05T06:30:11.763Z,17.40
2018-12-05T06:31:11.750Z,17.50
2018-12-05T06:32:11.758Z,22.20
2018-12-05T06:33:11.747Z,19.70
2018-12-05T06:34:11.738Z,21.60
2018-12-05T06:35:11.709Z,21.40
2018-12-05T06:36:11.702Z,20.00
2018-12-05T06:37:11.707Z,20.30
2018-12-05T06:38:11.663Z,19.10
2018-12-05T06:39:11.663Z,17.50
2018-12-05T06:40:11.642Z,18.70
2018-12-05T06:41:11.635Z,20.10
2018-12-05T06:42:11.632Z,19.40
2018-12-05T06:43:11.639Z,20.90
2018-12-05T06:44:11.604Z,20.30
2018-12-05T06:45:11.592Z,21.00
2018-12-05T06:46:11.606Z,20.70
2018-12-05T06:47:11.580Z,24.50
2018-12-05T06:48:11.596Z,20.80
2018-12-05T06:49:11.592Z,26.80
2018-12-05T06:50:11.541Z,20.30
2018-12-05T06:51:11.545Z,20.80
2018-12-05T06:52:11.538Z,24.60
2018-12-05T06:53:11.515Z,21.20
2018-12-05T06:54:11.492Z,22.30
2018-12-05T06:55:11.495Z,22.70
2018-12-05T06:56:11.474Z,26.70
2018-12-05T06:57:11.468Z,26.40
2018-12-05T06:58:11.498Z,25.20
2018-12-05T06:59:11.447Z,23.40
2018-12-05T07:00:11.432Z,24.20
2018-12-05T07:01:11.422Z,26.10
2018-12-05T07:02:11.401Z,18.40
2018-12-05T07:03:11.407Z,25.40
2018-12-05T07:04:11.383Z,27.10
2018-12-05T07:05:11.382Z,21.90
2018-12-05T07:06:11.369Z,22.90
2018-12-05T07:07:11.380Z,25.00
2018-12-05T07:08:11.361Z,19.50
2018-12-05T07:09:11.335Z,26.00
2018-12-05T07:10:11.414Z,22.90
2018-12-05T07:11:11.341Z,19.60
2018-12-05T07:12:11.301Z,20.50
2018-12-05T07:13:11.313Z,21.80
2018-12-05T07:14:11.298Z,22.80
2018-12-05T07:15:11.268Z,21.10
2018-12-05T07:16:11.257Z,21.70
2018-12-05T07:17:11.260Z,21.00
2018-12-05T07:18:11.249Z,19.30
2018-12-05T07:19:11.239Z,20.10
2018-12-05T07:20:11.235Z,25.90
2018-12-05T07:21:11.203Z,25.20
2018-12-05T07:22:11.193Z,27.90
2018-12-05T07:23:11.213Z,26.50
2018-12-05T07:24:11.180Z,22.50
2018-12-05T07:25:11.155Z,25.00
2018-12-05T07:26:11.154Z,29.10
2018-12-05T07:27:11.151Z,28.70
2018-12-05T07:28:11.125Z,25.30
2018-12-05T07:29:11.121Z,27.10
2018-12-05T07:30:11.105Z,23.30
2018-12-05T07:31:11.084Z,24.50
2018-12-05T07:32:11.079Z,25.00
2018-12-05T07:33:11.065Z,27.10
2018-12-05T07:34:11.069Z,25.50
2018-12-05T07:35:11.058Z,26.50
2018-12-05T07:36:11.035Z,22.80
2018-12-05T07:37:11.021Z,19.20
2018-12-05T07:38:11.025Z,21.70
2018-12-05T07:39:11.025Z,21.80
2018-12-05T07:40:11.002Z,28.10
2018-12-05T07:41:10.976Z,25.00
2018-12-05T07:42:10.975Z,18.00
2018-12-05T07:43:10.956Z,25.70
2018-12-05T07:44:10.970Z,22.70
2018-12-05T07:45:10.929Z,20.20
2018-12-05T07:46:10.925Z,25.00
2018-12-05T07:47:10.924Z,25.80
2018-12-05T07:48:10.916Z,24.50
2018-12-05T07:49:10.909Z,24.60
2018-12-05T07:50:10.900Z,29.70
2018-12-05T07:51:10.873Z,23.20
2018-12-05T07:52:10.867Z,18.70
2018-12-05T07:53:10.851Z,20.40
2018-12-05T07:54:10.857Z,22.40
2018-12-05T07:55:10.830Z,23.00
2018-12-05T07:56:10.829Z,20.00
2018-12-05T07:57:10.835Z,27.00
2018-12-05T07:58:10.795Z,27.90
2018-12-05T07:59:10.805Z,22.50
2018-12-05T08:00:10.778Z,24.00
2018-12-05T08:01:10.764Z,29.30
2018-12-05T08:02:10.748Z,24.80
2018-12-05T08:03:10.739Z,25.40
2018-12-05T08:04:10.754Z,26.20
2018-12-05T08:05:10.718Z,26.10
2018-12-05T08:06:10.718Z,21.60
2018-12-05T08:07:10.728Z,22.10
2018-12-05T08:08:10.695Z,25.60
2018-12-05T08:09:10.700Z,22.80
2018-12-05T08:10:10.673Z,26.90
2018-12-05T08:11:10.656Z,27.80
2018-12-05T08:12:10.640Z,22.50
2018-12-05T08:13:10.632Z,23.30
2018-12-05T08:14:10.635Z,21.80
2018-12-05T08:15:10.602Z,24.50
2018-12-05T08:16:10.597Z,32.00
2018-12-05T08:17:10.578Z,26.50
2018-12-05T08:18:10.597Z,26.30
2018-12-05T08:19:10.602Z,24.70
2018-12-05T08:20:10.552Z,22.90
2018-12-05T08:21:10.554Z,26.80
2018-12-05T08:22:10.527Z,22.70
2018-12-05T08:23:10.521Z,26.10
2018-12-05T08:24:10.507Z,22.00
2018-12-05T08:25:10.517Z,20.00
2018-12-05T08:26:10.484Z,21.80
2018-12-05T08:27:10.475Z,24.30
2018-12-05T08:28:10.472Z,27.80
2018-12-05T08:29:10.458Z,28.60
2018-12-05T08:30:10.550Z,24.50
2018-12-05T08:31:10.440Z,20.80
2018-12-05T08:32:10.417Z,27.60
2018-12-05T08:33:10.407Z,25.60
2018-12-05T08:34:10.396Z,27.10
2018-12-05T08:35:10.400Z,28.20
2018-12-05T08:36:10.376Z,23.00
2018-12-05T08:37:10.381Z,27.80
2018-12-05T08:38:11.226Z,20.50
2018-12-05T08:39:10.344Z,23.50
2018-12-05T08:40:10.352Z,19.80
2018-12-05T08:41:10.326Z,24.40
2018-12-05T08:42:10.310Z,24.10
2018-12-05T08:43:10.310Z,24.20
2018-12-05T08:44:10.290Z,18.10
2018-12-05T08:45:10.300Z,24.50
2018-12-05T08:46:10.277Z,24.40
2018-12-05T08:47:10.272Z,20.70
2018-12-05T08:48:10.244Z,25.70
2018-12-05T08:49:10.242Z,25.60
2018-12-05T08:50:10.238Z,24.20
2018-12-05T08:51:10.211Z,24.20
2018-12-05T08:52:10.200Z,24.40
2018-12-05T08:53:10.194Z,26.70
2018-12-05T08:54:10.174Z,22.10
2018-12-05T08:55:10.189Z,21.40
2018-12-05T08:56:10.174Z,25.40
2018-12-05T08:57:10.146Z,20.00
2018-12-05T08:58:10.132Z,25.30
2018-12-05T08:59:10.130Z,21.30
2018-12-05T09:00:10.139Z,23.10
2018-12-05T09:01:10.099Z,27.00
2018-12-05T09:02:10.100Z,22.20
2018-12-05T09:03:10.077Z,19.80
2018-12-05T09:04:10.072Z,20.90
2018-12-05T09:05:10.082Z,22.60
2018-12-05T09:06:10.056Z,20.60
2018-12-05T09:07:10.029Z,19.00
2018-12-05T09:08:10.032Z,21.00
2018-12-05T09:09:10.008Z,20.40
2018-12-05T09:10:10.025Z,21.70
2018-12-05T09:11:09.991Z,23.40
2018-12-05T09:12:09.988Z,17.00
2018-12-05T09:13:09.977Z,22.30
2018-12-05T09:14:09.968Z,20.90
2018-12-05T09:15:09.974Z,23.00
2018-12-05T09:16:09.945Z,20.50
2018-12-05T09:17:09.921Z,17.40
2018-12-05T09:18:09.936Z,25.00
2018-12-05T09:19:09.903Z,19.00
2018-12-05T09:20:09.907Z,24.60
2018-12-05T09:21:09.877Z,24.80
2018-12-05T09:22:09.872Z,22.10
2018-12-05T09:23:09.869Z,18.00
2018-12-05T09:24:09.886Z,18.50
2018-12-05T09:25:09.851Z,20.00
2018-12-05T09:26:09.836Z,23.10
2018-12-05T09:27:09.823Z,23.60
2018-12-05T09:28:09.887Z,17.50
2018-12-05T09:29:09.797Z,24.40
2018-12-05T09:30:09.802Z,23.70
2018-12-05T09:31:09.782Z,23.10
2018-12-05T09:32:09.759Z,22.50
2018-12-05T09:33:09.753Z,19.60
2018-12-05T09:34:09.743Z,25.80
2018-12-05T09:35:09.746Z,21.00
2018-12-05T09:36:09.717Z,18.20
2018-12-05T09:37:09.711Z,22.70
2018-12-05T09:38:09.710Z,21.20
2018-12-05T09:39:09.683Z,22.90
2018-12-05T09:40:09.709Z,20.50
2018-12-05T09:41:09.675Z,22.20
2018-12-05T09:42:09.663Z,21.80
2018-12-05T09:43:09.653Z,20.70
2018-12-05T09:44:09.637Z,22.10
2018-12-05T09:45:09.620Z,18.90
2018-12-05T09:46:09.625Z,21.10
2018-12-05T09:47:15.739Z,22.70
2018-12-05T09:48:10.590Z,16.40
2018-12-05T09:49:09.583Z,25.10
2018-12-05T09:50:09.579Z,25.20
2018-12-05T09:51:09.579Z,22.80
2018-12-05T09:52:09.554Z,24.80
2018-12-05T09:53:09.546Z,28.70
2018-12-05T09:54:09.518Z,26.60
2018-12-05T09:55:09.517Z,24.20
2018-12-05T09:56:09.535Z,23.00
2018-12-05T09:57:09.494Z,23.80
2018-12-05T09:58:09.484Z,25.10
2018-12-05T09:59:09.468Z,25.00
2018-12-05T10:00:09.453Z,27.10
2018-12-05T10:01:09.475Z,21.80
2018-12-05T10:02:09.455Z,22.30
2018-12-05T10:03:09.424Z,20.80
2018-12-05T10:04:09.422Z,22.40
2018-12-05T10:05:09.422Z,20.10
2018-12-05T10:06:09.412Z,21.30
2018-12-05T10:07:09.383Z,27.60
2018-12-05T10:08:09.366Z,25.70
2018-12-05T10:09:09.371Z,21.80
2018-12-05T10:10:09.349Z,25.40
2018-12-05T10:11:09.358Z,20.70
2018-12-05T10:12:09.388Z,25.80
2018-12-05T10:13:09.310Z,23.60
2018-12-05T10:14:09.302Z,15.90
2018-12-05T10:15:09.297Z,20.20
2018-12-05T10:16:09.298Z,22.90
2018-12-05T10:17:09.284Z,25.50
2018-12-05T10:18:09.263Z,21.80
2018-12-05T10:19:09.254Z,23.00
2018-12-05T10:20:09.237Z,27.90
2018-12-05T10:21:09.241Z,23.50
2018-12-05T10:22:09.237Z,21.00
2018-12-05T10:23:09.214Z,22.10
2018-12-05T10:24:09.191Z,21.30
2018-12-05T10:25:09.221Z,24.40
2018-12-05T10:26:09.209Z,22.90
2018-12-05T10:27:09.166Z,25.40
2018-12-05T10:28:09.145Z,18.40
2018-12-05T10:29:09.141Z,17.10
2018-12-05T10:30:09.139Z,17.80
2018-12-05T10:31:09.129Z,19.30
2018-12-05T10:32:09.137Z,23.00
2018-12-05T10:33:09.097Z,20.60
2018-12-05T10:34:09.085Z,21.50
2018-12-05T10:35:09.099Z,25.20
2018-12-05T10:36:09.064Z,21.10
2018-12-05T10:37:09.074Z,26.40
2018-12-05T10:38:09.044Z,23.10
2018-12-05T10:39:09.030Z,28.60
2018-12-05T10:40:09.021Z,23.30
2018-12-05T10:41:09.005Z,25.90
2018-12-05T10:42:09.007Z,23.30
2018-12-05T10:43:08.985Z,24.30
2018-12-05T10:44:08.981Z,18.60
2018-12-05T10:45:08.971Z,19.90
2018-12-05T10:46:08.957Z,21.50
2018-12-05T10:47:08.964Z,21.10
2018-12-05T10:48:08.939Z,20.20
2018-12-05T10:49:08.918Z,20.30
2018-12-05T10:50:08.922Z,16.30
2018-12-05T10:51:08.891Z,17.80
2018-12-05T10:52:08.928Z,17.60
2018-12-05T10:53:08.881Z,20.40
2018-12-05T10:54:08.868Z,18.70
2018-12-05T10:55:08.851Z,26.00
2018-12-05T10:56:08.850Z,19.00
2018-12-05T10:57:08.845Z,20.90
2018-12-05T10:58:08.824Z,19.60
2018-12-05T10:59:08.808Z,19.40
2018-12-05T11:00:08.816Z,22.30
2018-12-05T11:01:08.786Z,18.90
2018-12-05T11:02:08.796Z,24.90
2018-12-05T11:03:08.798Z,18.30
2018-12-05T11:04:08.762Z,20.10
2018-12-05T11:05:08.742Z,19.80
2018-12-05T11:06:08.737Z,17.70
2018-12-05T11:07:08.730Z,17.20
2018-12-05T11:08:08.719Z,19.20
2018-12-05T11:09:08.696Z,20.80
2018-12-05T11:10:08.690Z,20.60
2018-12-05T11:11:08.678Z,21.30
2018-12-05T11:12:08.681Z,18.80
2018-12-05T11:13:08.660Z,17.50
2018-12-05T11:14:08.658Z,19.10
2018-12-05T11:15:08.636Z,16.80
2018-12-05T11:16:08.623Z,15.90
2018-12-05T11:17:08.641Z,19.10
2018-12-05T11:18:08.599Z,18.70
2018-12-05T11:19:08.591Z,18.80
2018-12-05T11:20:08.569Z,17.20
2018-12-05T11:21:08.586Z,16.70
2018-12-05T11:22:08.575Z,22.90
2018-12-05T11:23:08.556Z,17.00
2018-12-05T11:24:08.530Z,20.10
2018-12-05T11:25:08.517Z,18.10
2018-12-05T11:26:08.508Z,20.60
2018-12-05T11:27:08.494Z,18.30
2018-12-05T11:28:08.500Z,19.10
2018-12-05T11:29:08.475Z,15.40
2018-12-05T11:30:08.456Z,18.20
2018-12-05T11:31:08.461Z,15.00
2018-12-05T11:32:08.441Z,18.60
2018-12-05T11:33:08.450Z,19.80
2018-12-05T11:34:08.416Z,16.90
2018-12-05T11:35:08.407Z,19.20
2018-12-05T11:36:08.400Z,16.30
2018-12-05T11:37:08.404Z,12.80
2018-12-05T11:38:08.392Z,16.10
2018-12-05T11:39:08.357Z,15.90
2018-12-05T11:40:08.351Z,13.60
2018-12-05T11:41:08.331Z,12.80
2018-12-05T11:42:08.379Z,14.70
2018-12-05T11:43:08.372Z,14.70
2018-12-05T11:44:08.309Z,13.50
2018-12-05T11:45:08.325Z,16.40
2018-12-05T11:46:08.321Z,15.10
2018-12-05T11:47:08.270Z,11.40
2018-12-05T11:48:08.285Z,19.00
2018-12-05T11:49:08.259Z,13.50
2018-12-05T11:50:08.314Z,13.50
2018-12-05T11:51:08.270Z,13.10
2018-12-05T11:52:08.222Z,12.40
2018-12-05T11:53:08.231Z,12.40
2018-12-05T11:54:08.184Z,13.60
2018-12-05T11:55:08.196Z,12.10
2018-12-05T11:56:08.170Z,15.60
2018-12-05T11:57:08.166Z,15.50
2018-12-05T11:58:08.207Z,17.80
2018-12-05T11:59:08.169Z,15.20
2018-12-05T12:00:08.134Z,17.20
2018-12-05T12:01:08.111Z,17.50
2018-12-05T12:02:08.150Z,22.20
2018-12-05T12:03:08.108Z,13.30
2018-12-05T12:04:08.089Z,13.80
2018-12-05T12:05:08.064Z,14.40
2018-12-05T12:06:08.073Z,14.00
2018-12-05T12:07:08.049Z,16.30
2018-12-05T12:08:08.062Z,13.60
2018-12-05T12:09:08.033Z,16.60
2018-12-05T12:10:08.024Z,13.60
2018-12-05T12:11:09.363Z,16.60
2018-12-05T12:12:09.692Z,16.60
2018-12-05T12:13:08.006Z,18.40
2018-12-05T12:14:07.985Z,16.20
2018-12-05T12:15:07.966Z,17.10
2018-12-05T12:16:07.944Z,13.90
2018-12-05T12:17:07.936Z,16.20
2018-12-05T12:18:07.949Z,19.20
2018-12-05T12:19:07.917Z,17.30
2018-12-05T12:20:07.934Z,15.50
2018-12-05T12:21:07.887Z,17.50
2018-12-05T12:22:07.908Z,12.50
2018-12-05T12:23:07.874Z,13.70
2018-12-05T12:24:07.867Z,15.10
2018-12-05T12:25:07.852Z,15.60
2018-12-05T12:26:07.834Z,11.80
2018-12-05T12:27:07.824Z,17.10
2018-12-05T12:28:07.819Z,14.60
2018-12-05T12:29:07.815Z,14.40
2018-12-05T12:30:07.786Z,15.40
2018-12-05T12:31:07.774Z,14.90
2018-12-05T12:32:07.782Z,14.30
2018-12-05T12:33:07.762Z,15.70
2018-12-05T12:34:07.774Z,12.50
2018-12-05T12:35:07.746Z,19.90
2018-12-05T12:36:07.723Z,15.90
2018-12-05T12:37:07.710Z,15.90
2018-12-05T12:38:07.757Z,13.40
2018-12-05T12:39:07.708Z,14.30
2018-12-05T12:40:07.672Z,15.10
2018-12-05T12:41:07.668Z,18.30
2018-12-05T12:42:07.685Z,18.50
2018-12-05T12:43:07.649Z,17.40
2018-12-05T12:44:07.663Z,14.50
2018-12-05T12:45:07.623Z,13.10
2018-12-05T12:46:07.609Z,17.50
2018-12-05T12:47:07.615Z,15.20
2018-12-05T12:48:08.189Z,14.30
2018-12-05T12:49:07.595Z,13.90
2018-12-05T12:50:07.566Z,18.90
2018-12-05T12:51:07.555Z,17.20
2018-12-05T12:52:07.549Z,16.60
2018-12-05T12:53:07.543Z,18.50